sensor_id;sensor_type;location;lat;lon;timestamp;P1;durP1;ratioP1;P2;durP2;ratioP2
76714;SDS011;65644;44.990;20.288;2024-03-22T00:01:47;25.67;;;16.70;;
76714;SDS011;65644;44.990;20.288;2024-03-22T00:04:13;23.95;;;16.55;;
76714;SDS011;65644;44.990;20.288;2024-03-22T00:06:43;27.23;;;16.55;;
76714;SDS011;65644;44.990;20.288;2024-03-22T00:09:09;27.17;;;17.65;;
76714;SDS011;65644;44.990;20.288;2024-03-22T00:11:36;28.65;;;16.90;;
76714;SDS011;65644;44.990;20.288;2024-03-22T00:14:02;26.15;;;17.27;;
76714;SDS011;65644;44.990;20.288;2024-03-22T00:16:28;24.50;;;17.50;;
76714;SDS011;65644;44.990;20.288;2024-03-22T00:18:55;24.48;;;17.10;;
76714;SDS011;65644;44.990;20.288;2024-03-22T00:21:21;23.55;;;16.90;;
76714;SDS011;65644;44.990;20.288;2024-03-22T00:23:50;27.25;;;17.58;;
76714;SDS011;65644;44.990;20.288;2024-03-22T00:26:16;25.05;;;16.45;;
76714;SDS011;65644;44.990;20.288;2024-03-22T00:28:43;28.88;;;16.77;;
76714;SDS011;65644;44.990;20.288;2024-03-22T00:31:09;26.17;;;17.08;;
76714;SDS011;65644;44.990;20.288;2024-03-22T00:33:35;25.30;;;16.40;;
76714;SDS011;65644;44.990;20.288;2024-03-22T00:36:01;26.98;;;16.85;;
76714;SDS011;65644;44.990;20.288;2024-03-22T00:38:28;28.42;;;18.73;;
76714;SDS011;65644;44.990;20.288;2024-03-22T00:40:54;29.08;;;17.40;;
76714;SDS011;65644;44.990;20.288;2024-03-22T00:43:20;28.38;;;18.30;;
76714;SDS011;65644;44.990;20.288;2024-03-22T00:45:47;25.77;;;17.63;;
76714;SDS011;65644;44.990;20.288;2024-03-22T00:48:13;24.92;;;16.13;;
76714;SDS011;65644;44.990;20.288;2024-03-22T00:50:39;27.48;;;16.25;;
76714;SDS011;65644;44.990;20.288;2024-03-22T00:53:05;26.17;;;16.27;;
76714;SDS011;65644;44.990;20.288;2024-03-22T00:55:33;24.98;;;15.80;;
76714;SDS011;65644;44.990;20.288;2024-03-22T00:57:59;26.00;;;15.73;;
76714;SDS011;65644;44.990;20.288;2024-03-22T01:00:25;22.50;;;16.35;;
76714;SDS011;65644;44.990;20.288;2024-03-22T01:02:51;25.42;;;16.58;;
76714;SDS011;65644;44.990;20.288;2024-03-22T01:05:17;26.38;;;17.08;;
76714;SDS011;65644;44.990;20.288;2024-03-22T01:07:44;27.15;;;17.00;;
76714;SDS011;65644;44.990;20.288;2024-03-22T01:10:10;30.25;;;17.60;;
76714;SDS011;65644;44.990;20.288;2024-03-22T01:12:37;26.40;;;16.30;;
76714;SDS011;65644;44.990;20.288;2024-03-22T01:15:04;26.95;;;17.45;;
76714;SDS011;65644;44.990;20.288;2024-03-22T01:17:30;29.13;;;16.88;;
76714;SDS011;65644;44.990;20.288;2024-03-22T01:19:56;27.85;;;16.40;;
76714;SDS011;65644;44.990;20.288;2024-03-22T01:22:22;25.27;;;16.52;;
76714;SDS011;65644;44.990;20.288;2024-03-22T01:24:49;25.85;;;16.48;;
76714;SDS011;65644;44.990;20.288;2024-03-22T01:27:15;27.05;;;17.27;;
76714;SDS011;65644;44.990;20.288;2024-03-22T01:29:41;29.35;;;19.35;;
76714;SDS011;65644;44.990;20.288;2024-03-22T01:32:07;28.48;;;18.20;;
76714;SDS011;65644;44.990;20.288;2024-03-22T01:34:33;32.33;;;20.20;;
76714;SDS011;65644;44.990;20.288;2024-03-22T01:37:00;31.88;;;19.17;;
76714;SDS011;65644;44.990;20.288;2024-03-22T01:39:27;28.48;;;19.08;;
76714;SDS011;65644;44.990;20.288;2024-03-22T01:41:54;28.30;;;18.67;;
76714;SDS011;65644;44.990;20.288;2024-03-22T01:44:26;29.15;;;18.05;;
76714;SDS011;65644;44.990;20.288;2024-03-22T01:46:52;29.92;;;18.85;;
76714;SDS011;65644;44.990;20.288;2024-03-22T01:49:19;29.23;;;18.88;;
76714;SDS011;65644;44.990;20.288;2024-03-22T01:51:45;31.20;;;19.92;;
76714;SDS011;65644;44.990;20.288;2024-03-22T01:54:11;30.45;;;18.83;;
76714;SDS011;65644;44.990;20.288;2024-03-22T01:56:37;31.73;;;20.17;;
76714;SDS011;65644;44.990;20.288;2024-03-22T01:59:07;32.45;;;20.15;;
76714;SDS011;65644;44.990;20.288;2024-03-22T02:01:33;31.65;;;19.20;;
76714;SDS011;65644;44.990;20.288;2024-03-22T02:04:01;30.20;;;20.08;;
76714;SDS011;65644;44.990;20.288;2024-03-22T02:06:27;33.05;;;20.08;;
76714;SDS011;65644;44.990;20.288;2024-03-22T02:08:53;30.35;;;19.98;;
76714;SDS011;65644;44.990;20.288;2024-03-22T02:11:19;40.30;;;20.75;;
76714;SDS011;65644;44.990;20.288;2024-03-22T02:13:46;31.55;;;20.50;;
76714;SDS011;65644;44.990;20.288;2024-03-22T02:16:12;30.27;;;19.33;;
76714;SDS011;65644;44.990;20.288;2024-03-22T02:18:38;31.25;;;19.73;;
76714;SDS011;65644;44.990;20.288;2024-03-22T02:21:04;32.35;;;19.23;;
76714;SDS011;65644;44.990;20.288;2024-03-22T02:23:34;27.10;;;18.50;;
76714;SDS011;65644;44.990;20.288;2024-03-22T02:26:00;31.52;;;20.25;;
76714;SDS011;65644;44.990;20.288;2024-03-22T02:28:27;31.05;;;19.80;;
76714;SDS011;65644;44.990;20.288;2024-03-22T02:30:53;32.47;;;19.42;;
76714;SDS011;65644;44.990;20.288;2024-03-22T02:33:19;28.02;;;18.02;;
76714;SDS011;65644;44.990;20.288;2024-03-22T02:35:46;27.80;;;18.52;;
76714;SDS011;65644;44.990;20.288;2024-03-22T02:38:12;29.80;;;18.42;;
76714;SDS011;65644;44.990;20.288;2024-03-22T02:40:38;26.42;;;17.63;;
76714;SDS011;65644;44.990;20.288;2024-03-22T02:43:05;31.40;;;18.52;;
76714;SDS011;65644;44.990;20.288;2024-03-22T02:45:32;30.00;;;18.48;;
76714;SDS011;65644;44.990;20.288;2024-03-22T02:47:58;32.65;;;18.38;;
76714;SDS011;65644;44.990;20.288;2024-03-22T02:50:24;30.70;;;18.23;;
76714;SDS011;65644;44.990;20.288;2024-03-22T02:52:51;32.08;;;19.40;;
76714;SDS011;65644;44.990;20.288;2024-03-22T02:55:17;55.28;;;28.67;;
76714;SDS011;65644;44.990;20.288;2024-03-22T02:57:43;53.35;;;29.67;;
76714;SDS011;65644;44.990;20.288;2024-03-22T03:00:09;43.60;;;24.42;;
76714;SDS011;65644;44.990;20.288;2024-03-22T03:02:36;33.88;;;20.20;;
76714;SDS011;65644;44.990;20.288;2024-03-22T03:05:02;36.33;;;21.20;;
76714;SDS011;65644;44.990;20.288;2024-03-22T03:07:28;31.38;;;20.27;;
76714;SDS011;65644;44.990;20.288;2024-03-22T03:09:55;31.85;;;19.88;;
76714;SDS011;65644;44.990;20.288;2024-03-22T03:12:21;31.10;;;18.63;;
76714;SDS011;65644;44.990;20.288;2024-03-22T03:14:47;33.47;;;19.33;;
76714;SDS011;65644;44.990;20.288;2024-03-22T03:17:13;31.27;;;19.58;;
76714;SDS011;65644;44.990;20.288;2024-03-22T03:19:39;27.83;;;18.05;;
76714;SDS011;65644;44.990;20.288;2024-03-22T03:22:05;31.27;;;18.35;;
76714;SDS011;65644;44.990;20.288;2024-03-22T03:24:31;30.15;;;18.17;;
76714;SDS011;65644;44.990;20.288;2024-03-22T03:26:57;33.25;;;18.33;;
76714;SDS011;65644;44.990;20.288;2024-03-22T03:29:23;32.63;;;18.02;;
76714;SDS011;65644;44.990;20.288;2024-03-22T03:31:49;28.75;;;18.88;;
76714;SDS011;65644;44.990;20.288;2024-03-22T03:34:16;30.13;;;18.13;;
76714;SDS011;65644;44.990;20.288;2024-03-22T03:36:42;32.17;;;19.02;;
76714;SDS011;65644;44.990;20.288;2024-03-22T03:39:08;28.58;;;18.58;;
76714;SDS011;65644;44.990;20.288;2024-03-22T03:41:35;41.03;;;23.60;;
76714;SDS011;65644;44.990;20.288;2024-03-22T03:44:01;36.10;;;20.83;;
76714;SDS011;65644;44.990;20.288;2024-03-22T03:46:27;35.72;;;20.45;;
76714;SDS011;65644;44.990;20.288;2024-03-22T03:48:53;38.25;;;21.95;;
76714;SDS011;65644;44.990;20.288;2024-03-22T03:51:19;36.17;;;21.15;;
76714;SDS011;65644;44.990;20.288;2024-03-22T03:53:46;35.40;;;21.20;;
76714;SDS011;65644;44.990;20.288;2024-03-22T03:56:12;34.63;;;19.65;;
76714;SDS011;65644;44.990;20.288;2024-03-22T03:58:38;33.40;;;20.73;;
76714;SDS011;65644;44.990;20.288;2024-03-22T04:01:07;30.15;;;19.35;;
76714;SDS011;65644;44.990;20.288;2024-03-22T04:03:34;34.15;;;18.92;;
76714;SDS011;65644;44.990;20.288;2024-03-22T04:06:00;30.92;;;20.15;;
76714;SDS011;65644;44.990;20.288;2024-03-22T04:08:27;35.05;;;21.10;;
76714;SDS011;65644;44.990;20.288;2024-03-22T04:10:56;29.77;;;20.38;;
76714;SDS011;65644;44.990;20.288;2024-03-22T04:13:25;35.35;;;22.08;;
76714;SDS011;65644;44.990;20.288;2024-03-22T04:15:52;41.25;;;25.27;;
76714;SDS011;65644;44.990;20.288;2024-03-22T04:18:18;48.25;;;26.50;;
76714;SDS011;65644;44.990;20.288;2024-03-22T04:20:54;33.63;;;21.67;;
76714;SDS011;65644;44.990;20.288;2024-03-22T04:23:20;37.88;;;25.75;;
76714;SDS011;65644;44.990;20.288;2024-03-22T04:25:54;35.25;;;21.70;;
76714;SDS011;65644;44.990;20.288;2024-03-22T04:28:20;35.65;;;22.33;;
76714;SDS011;65644;44.990;20.288;2024-03-22T04:31:00;39.50;;;23.70;;
76714;SDS011;65644;44.990;20.288;2024-03-22T04:33:26;34.60;;;23.02;;
76714;SDS011;65644;44.990;20.288;2024-03-22T04:35:53;37.25;;;24.05;;
76714;SDS011;65644;44.990;20.288;2024-03-22T04:38:19;33.83;;;23.25;;
76714;SDS011;65644;44.990;20.288;2024-03-22T04:40:46;34.80;;;23.58;;
76714;SDS011;65644;44.990;20.288;2024-03-22T04:43:12;37.95;;;25.75;;
76714;SDS011;65644;44.990;20.288;2024-03-22T04:45:38;34.63;;;24.75;;
76714;SDS011;65644;44.990;20.288;2024-03-22T04:48:04;37.72;;;24.88;;
76714;SDS011;65644;44.990;20.288;2024-03-22T04:50:31;39.22;;;25.95;;
76714;SDS011;65644;44.990;20.288;2024-03-22T04:52:57;40.80;;;26.83;;
76714;SDS011;65644;44.990;20.288;2024-03-22T04:55:23;43.20;;;27.55;;
76714;SDS011;65644;44.990;20.288;2024-03-22T04:57:49;37.60;;;26.23;;
76714;SDS011;65644;44.990;20.288;2024-03-22T05:00:15;41.70;;;25.70;;
76714;SDS011;65644;44.990;20.288;2024-03-22T05:02:42;37.60;;;25.15;;
76714;SDS011;65644;44.990;20.288;2024-03-22T05:05:08;44.80;;;27.13;;
76714;SDS011;65644;44.990;20.288;2024-03-22T05:07:34;48.25;;;27.70;;
76714;SDS011;65644;44.990;20.288;2024-03-22T05:10:01;36.30;;;24.52;;
76714;SDS011;65644;44.990;20.288;2024-03-22T05:12:28;39.28;;;25.05;;
76714;SDS011;65644;44.990;20.288;2024-03-22T05:14:54;42.00;;;26.45;;
76714;SDS011;65644;44.990;20.288;2024-03-22T05:17:20;39.35;;;24.83;;
76714;SDS011;65644;44.990;20.288;2024-03-22T05:19:47;36.13;;;24.13;;
76714;SDS011;65644;44.990;20.288;2024-03-22T05:22:13;38.88;;;25.42;;
76714;SDS011;65644;44.990;20.288;2024-03-22T05:24:39;39.22;;;23.73;;
76714;SDS011;65644;44.990;20.288;2024-03-22T05:27:05;41.60;;;25.08;;
76714;SDS011;65644;44.990;20.288;2024-03-22T05:29:31;41.15;;;25.08;;
76714;SDS011;65644;44.990;20.288;2024-03-22T05:31:57;40.08;;;24.67;;
76714;SDS011;65644;44.990;20.288;2024-03-22T05:34:25;34.13;;;23.65;;
76714;SDS011;65644;44.990;20.288;2024-03-22T05:36:51;40.63;;;25.08;;
76714;SDS011;65644;44.990;20.288;2024-03-22T05:39:17;41.38;;;26.23;;
76714;SDS011;65644;44.990;20.288;2024-03-22T05:41:43;37.95;;;25.08;;
76714;SDS011;65644;44.990;20.288;2024-03-22T05:44:11;45.45;;;26.55;;
76714;SDS011;65644;44.990;20.288;2024-03-22T05:46:37;40.55;;;25.88;;
76714;SDS011;65644;44.990;20.288;2024-03-22T05:49:03;41.08;;;26.27;;
76714;SDS011;65644;44.990;20.288;2024-03-22T05:51:29;38.33;;;25.52;;
76714;SDS011;65644;44.990;20.288;2024-03-22T05:53:56;40.58;;;26.45;;
76714;SDS011;65644;44.990;20.288;2024-03-22T05:56:22;44.63;;;26.38;;
76714;SDS011;65644;44.990;20.288;2024-03-22T05:58:48;40.20;;;25.83;;
76714;SDS011;65644;44.990;20.288;2024-03-22T06:01:14;38.88;;;25.50;;
76714;SDS011;65644;44.990;20.288;2024-03-22T06:03:40;43.40;;;26.95;;
76714;SDS011;65644;44.990;20.288;2024-03-22T06:06:06;41.75;;;26.45;;
76714;SDS011;65644;44.990;20.288;2024-03-22T06:08:33;41.17;;;26.08;;
76714;SDS011;65644;44.990;20.288;2024-03-22T06:11:04;42.15;;;25.00;;
76714;SDS011;65644;44.990;20.288;2024-03-22T06:13:30;39.10;;;25.35;;
76714;SDS011;65644;44.990;20.288;2024-03-22T06:15:57;44.03;;;27.73;;
76714;SDS011;65644;44.990;20.288;2024-03-22T06:18:23;39.10;;;25.75;;
76714;SDS011;65644;44.990;20.288;2024-03-22T06:20:49;36.78;;;25.23;;
76714;SDS011;65644;44.990;20.288;2024-03-22T06:23:16;38.95;;;24.98;;
76714;SDS011;65644;44.990;20.288;2024-03-22T06:25:50;37.78;;;25.70;;
76714;SDS011;65644;44.990;20.288;2024-03-22T06:28:16;44.17;;;29.23;;
76714;SDS011;65644;44.990;20.288;2024-03-22T06:30:42;45.33;;;27.40;;
76714;SDS011;65644;44.990;20.288;2024-03-22T06:33:09;45.88;;;27.83;;
76714;SDS011;65644;44.990;20.288;2024-03-22T06:35:35;39.40;;;25.85;;
76714;SDS011;65644;44.990;20.288;2024-03-22T06:38:01;42.97;;;26.60;;
76714;SDS011;65644;44.990;20.288;2024-03-22T06:40:28;45.33;;;26.70;;
76714;SDS011;65644;44.990;20.288;2024-03-22T06:42:54;41.20;;;26.35;;
76714;SDS011;65644;44.990;20.288;2024-03-22T06:45:20;39.70;;;24.60;;
76714;SDS011;65644;44.990;20.288;2024-03-22T06:47:48;41.92;;;24.38;;
76714;SDS011;65644;44.990;20.288;2024-03-22T06:50:14;38.95;;;24.35;;
76714;SDS011;65644;44.990;20.288;2024-03-22T06:52:42;39.38;;;23.88;;
76714;SDS011;65644;44.990;20.288;2024-03-22T06:55:09;41.42;;;24.77;;
76714;SDS011;65644;44.990;20.288;2024-03-22T06:57:36;34.33;;;22.70;;
76714;SDS011;65644;44.990;20.288;2024-03-22T07:00:02;40.45;;;24.02;;
76714;SDS011;65644;44.990;20.288;2024-03-22T07:02:29;38.67;;;23.98;;
76714;SDS011;65644;44.990;20.288;2024-03-22T07:04:55;39.40;;;22.88;;
76714;SDS011;65644;44.990;20.288;2024-03-22T07:07:21;38.67;;;23.52;;
76714;SDS011;65644;44.990;20.288;2024-03-22T07:09:47;41.17;;;23.23;;
76714;SDS011;65644;44.990;20.288;2024-03-22T07:12:13;36.72;;;21.95;;
76714;SDS011;65644;44.990;20.288;2024-03-22T07:14:39;36.78;;;21.83;;
76714;SDS011;65644;44.990;20.288;2024-03-22T07:17:05;35.03;;;21.45;;
76714;SDS011;65644;44.990;20.288;2024-03-22T07:19:31;37.92;;;22.38;;
76714;SDS011;65644;44.990;20.288;2024-03-22T07:21:59;31.45;;;20.20;;
76714;SDS011;65644;44.990;20.288;2024-03-22T07:24:25;43.80;;;21.73;;
76714;SDS011;65644;44.990;20.288;2024-03-22T07:26:51;36.40;;;20.80;;
76714;SDS011;65644;44.990;20.288;2024-03-22T07:29:18;34.88;;;22.35;;
76714;SDS011;65644;44.990;20.288;2024-03-22T07:31:44;37.05;;;20.92;;
76714;SDS011;65644;44.990;20.288;2024-03-22T07:34:11;31.77;;;19.90;;
76714;SDS011;65644;44.990;20.288;2024-03-22T07:36:37;31.98;;;19.63;;
76714;SDS011;65644;44.990;20.288;2024-03-22T07:39:03;34.63;;;20.02;;
76714;SDS011;65644;44.990;20.288;2024-03-22T07:41:34;33.30;;;18.77;;
76714;SDS011;65644;44.990;20.288;2024-03-22T07:44:00;28.63;;;19.02;;
76714;SDS011;65644;44.990;20.288;2024-03-22T07:46:27;33.10;;;19.58;;
76714;SDS011;65644;44.990;20.288;2024-03-22T07:48:54;31.27;;;19.98;;
76714;SDS011;65644;44.990;20.288;2024-03-22T07:51:20;32.38;;;19.00;;
76714;SDS011;65644;44.990;20.288;2024-03-22T07:53:46;37.67;;;22.40;;
76714;SDS011;65644;44.990;20.288;2024-03-22T07:56:12;33.35;;;22.65;;
76714;SDS011;65644;44.990;20.288;2024-03-22T07:58:40;32.80;;;19.73;;
76714;SDS011;65644;44.990;20.288;2024-03-22T08:01:08;30.77;;;18.88;;
76714;SDS011;65644;44.990;20.288;2024-03-22T08:03:34;33.10;;;21.17;;
76714;SDS011;65644;44.990;20.288;2024-03-22T08:06:00;29.90;;;19.13;;
76714;SDS011;65644;44.990;20.288;2024-03-22T08:08:27;32.00;;;19.40;;
76714;SDS011;65644;44.990;20.288;2024-03-22T08:10:53;26.80;;;17.10;;
76714;SDS011;65644;44.990;20.288;2024-03-22T08:13:19;28.42;;;18.13;;
76714;SDS011;65644;44.990;20.288;2024-03-22T08:15:45;27.77;;;17.92;;
76714;SDS011;65644;44.990;20.288;2024-03-22T08:18:11;31.70;;;19.48;;
76714;SDS011;65644;44.990;20.288;2024-03-22T08:20:38;33.08;;;19.17;;
76714;SDS011;65644;44.990;20.288;2024-03-22T08:23:04;34.10;;;21.15;;
76714;SDS011;65644;44.990;20.288;2024-03-22T08:25:30;41.55;;;19.27;;
76714;SDS011;65644;44.990;20.288;2024-03-22T08:27:57;30.52;;;19.33;;
76714;SDS011;65644;44.990;20.288;2024-03-22T08:30:23;28.65;;;18.48;;
76714;SDS011;65644;44.990;20.288;2024-03-22T08:32:52;27.83;;;18.38;;
76714;SDS011;65644;44.990;20.288;2024-03-22T08:35:19;31.80;;;19.23;;
76714;SDS011;65644;44.990;20.288;2024-03-22T08:37:45;30.13;;;18.15;;
76714;SDS011;65644;44.990;20.288;2024-03-22T08:40:11;26.90;;;18.17;;
76714;SDS011;65644;44.990;20.288;2024-03-22T08:42:39;29.65;;;17.38;;
76714;SDS011;65644;44.990;20.288;2024-03-22T08:45:05;28.65;;;18.83;;
76714;SDS011;65644;44.990;20.288;2024-03-22T08:47:31;27.75;;;18.10;;
76714;SDS011;65644;44.990;20.288;2024-03-22T08:50:00;25.77;;;17.25;;
76714;SDS011;65644;44.990;20.288;2024-03-22T08:52:27;25.65;;;16.67;;
76714;SDS011;65644;44.990;20.288;2024-03-22T08:54:53;26.20;;;17.13;;
76714;SDS011;65644;44.990;20.288;2024-03-22T08:57:19;29.15;;;17.90;;
76714;SDS011;65644;44.990;20.288;2024-03-22T08:59:45;24.42;;;16.83;;
76714;SDS011;65644;44.990;20.288;2024-03-22T09:02:11;27.02;;;17.70;;
76714;SDS011;65644;44.990;20.288;2024-03-22T09:04:38;26.70;;;18.25;;
76714;SDS011;65644;44.990;20.288;2024-03-22T09:07:04;30.70;;;17.50;;
76714;SDS011;65644;44.990;20.288;2024-03-22T09:09:30;30.13;;;17.67;;
76714;SDS011;65644;44.990;20.288;2024-03-22T09:11:56;27.98;;;16.45;;
76714;SDS011;65644;44.990;20.288;2024-03-22T09:14:22;27.00;;;17.10;;
76714;SDS011;65644;44.990;20.288;2024-03-22T09:16:49;29.88;;;18.13;;
76714;SDS011;65644;44.990;20.288;2024-03-22T09:19:15;32.17;;;18.13;;
76714;SDS011;65644;44.990;20.288;2024-03-22T09:21:41;28.42;;;17.10;;
76714;SDS011;65644;44.990;20.288;2024-03-22T09:24:08;28.10;;;17.25;;
76714;SDS011;65644;44.990;20.288;2024-03-22T09:26:34;29.02;;;16.52;;
76714;SDS011;65644;44.990;20.288;2024-03-22T09:29:00;24.25;;;17.02;;
76714;SDS011;65644;44.990;20.288;2024-03-22T09:31:28;24.85;;;16.00;;
76714;SDS011;65644;44.990;20.288;2024-03-22T09:33:55;28.48;;;15.55;;
76714;SDS011;65644;44.990;20.288;2024-03-22T09:36:22;24.88;;;16.10;;
76714;SDS011;65644;44.990;20.288;2024-03-22T09:38:48;28.42;;;15.57;;
76714;SDS011;65644;44.990;20.288;2024-03-22T09:41:14;24.35;;;15.40;;
76714;SDS011;65644;44.990;20.288;2024-03-22T09:43:40;25.75;;;15.73;;
76714;SDS011;65644;44.990;20.288;2024-03-22T09:46:09;26.30;;;16.02;;
76714;SDS011;65644;44.990;20.288;2024-03-22T09:48:36;23.50;;;15.15;;
76714;SDS011;65644;44.990;20.288;2024-03-22T09:51:03;20.80;;;14.38;;
76714;SDS011;65644;44.990;20.288;2024-03-22T09:53:29;24.75;;;15.02;;
76714;SDS011;65644;44.990;20.288;2024-03-22T09:55:55;29.13;;;15.85;;
76714;SDS011;65644;44.990;20.288;2024-03-22T09:58:23;26.30;;;16.48;;
76714;SDS011;65644;44.990;20.288;2024-03-22T10:00:49;23.38;;;15.25;;
76714;SDS011;65644;44.990;20.288;2024-03-22T10:03:15;26.75;;;16.77;;
76714;SDS011;65644;44.990;20.288;2024-03-22T10:05:42;28.90;;;17.00;;
76714;SDS011;65644;44.990;20.288;2024-03-22T10:08:08;21.30;;;14.13;;
76714;SDS011;65644;44.990;20.288;2024-03-22T10:10:34;24.88;;;16.13;;
76714;SDS011;65644;44.990;20.288;2024-03-22T10:13:00;25.52;;;16.30;;
76714;SDS011;65644;44.990;20.288;2024-03-22T10:15:27;26.45;;;14.68;;
76714;SDS011;65644;44.990;20.288;2024-03-22T10:17:53;24.50;;;15.60;;
76714;SDS011;65644;44.990;20.288;2024-03-22T10:20:21;20.85;;;13.88;;
76714;SDS011;65644;44.990;20.288;2024-03-22T10:22:57;25.33;;;13.75;;
76714;SDS011;65644;44.990;20.288;2024-03-22T10:25:24;26.25;;;14.52;;
76714;SDS011;65644;44.990;20.288;2024-03-22T10:27:50;23.52;;;13.88;;
76714;SDS011;65644;44.990;20.288;2024-03-22T10:30:16;26.80;;;15.02;;
76714;SDS011;65644;44.990;20.288;2024-03-22T10:32:43;24.05;;;14.82;;
76714;SDS011;65644;44.990;20.288;2024-03-22T10:35:13;24.85;;;13.70;;
76714;SDS011;65644;44.990;20.288;2024-03-22T10:37:40;23.52;;;14.95;;
76714;SDS011;65644;44.990;20.288;2024-03-22T10:40:07;23.88;;;15.10;;
76714;SDS011;65644;44.990;20.288;2024-03-22T10:42:34;22.65;;;13.95;;
76714;SDS011;65644;44.990;20.288;2024-03-22T10:45:04;23.63;;;14.40;;
76714;SDS011;65644;44.990;20.288;2024-03-22T10:47:31;25.05;;;13.98;;
76714;SDS011;65644;44.990;20.288;2024-03-22T10:50:00;22.60;;;13.75;;
76714;SDS011;65644;44.990;20.288;2024-03-22T10:52:31;19.92;;;12.35;;
76714;SDS011;65644;44.990;20.288;2024-03-22T10:54:58;20.17;;;13.75;;
76714;SDS011;65644;44.990;20.288;2024-03-22T10:57:24;20.70;;;12.63;;
76714;SDS011;65644;44.990;20.288;2024-03-22T10:59:55;21.13;;;12.02;;
76714;SDS011;65644;44.990;20.288;2024-03-22T11:02:23;19.45;;;12.52;;
76714;SDS011;65644;44.990;20.288;2024-03-22T11:04:58;22.83;;;12.75;;
76714;SDS011;65644;44.990;20.288;2024-03-22T11:07:31;21.77;;;12.93;;
76714;SDS011;65644;44.990;20.288;2024-03-22T11:09:57;21.45;;;13.80;;
76714;SDS011;65644;44.990;20.288;2024-03-22T11:12:24;25.38;;;13.45;;
76714;SDS011;65644;44.990;20.288;2024-03-22T11:14:55;20.05;;;12.05;;
76714;SDS011;65644;44.990;20.288;2024-03-22T11:17:21;22.95;;;14.18;;
76714;SDS011;65644;44.990;20.288;2024-03-22T11:19:50;19.45;;;12.45;;
76714;SDS011;65644;44.990;20.288;2024-03-22T11:22:17;22.80;;;12.77;;
76714;SDS011;65644;44.990;20.288;2024-03-22T11:24:43;21.90;;;11.38;;
76714;SDS011;65644;44.990;20.288;2024-03-22T11:27:09;18.83;;;11.68;;
76714;SDS011;65644;44.990;20.288;2024-03-22T11:29:38;19.73;;;11.48;;
76714;SDS011;65644;44.990;20.288;2024-03-22T11:32:09;18.55;;;11.13;;
76714;SDS011;65644;44.990;20.288;2024-03-22T11:34:36;17.05;;;10.82;;
76714;SDS011;65644;44.990;20.288;2024-03-22T11:37:02;15.65;;;10.15;;
76714;SDS011;65644;44.990;20.288;2024-03-22T11:39:28;19.65;;;12.05;;
76714;SDS011;65644;44.990;20.288;2024-03-22T11:41:54;17.90;;;11.25;;
76714;SDS011;65644;44.990;20.288;2024-03-22T11:44:21;16.88;;;9.82;;
76714;SDS011;65644;44.990;20.288;2024-03-22T11:46:50;17.95;;;10.20;;
76714;SDS011;65644;44.990;20.288;2024-03-22T11:49:17;16.38;;;9.60;;
76714;SDS011;65644;44.990;20.288;2024-03-22T11:51:44;15.30;;;10.25;;
76714;SDS011;65644;44.990;20.288;2024-03-22T11:54:10;16.00;;;10.50;;
76714;SDS011;65644;44.990;20.288;2024-03-22T11:56:37;15.60;;;10.30;;
76714;SDS011;65644;44.990;20.288;2024-03-22T11:59:03;14.93;;;10.45;;
76714;SDS011;65644;44.990;20.288;2024-03-22T12:01:29;16.70;;;11.07;;
76714;SDS011;65644;44.990;20.288;2024-03-22T12:03:55;17.90;;;11.63;;
76714;SDS011;65644;44.990;20.288;2024-03-22T12:06:21;16.73;;;11.07;;
76714;SDS011;65644;44.990;20.288;2024-03-22T12:08:47;17.83;;;10.95;;
76714;SDS011;65644;44.990;20.288;2024-03-22T12:11:14;17.40;;;12.93;;
76714;SDS011;65644;44.990;20.288;2024-03-22T12:13:40;19.25;;;11.80;;
76714;SDS011;65644;44.990;20.288;2024-03-22T12:16:06;21.05;;;13.48;;
76714;SDS011;65644;44.990;20.288;2024-03-22T12:18:33;15.35;;;10.18;;
76714;SDS011;65644;44.990;20.288;2024-03-22T12:20:59;17.92;;;11.32;;
76714;SDS011;65644;44.990;20.288;2024-03-22T12:23:25;19.65;;;12.35;;
76714;SDS011;65644;44.990;20.288;2024-03-22T12:25:52;18.80;;;11.35;;
76714;SDS011;65644;44.990;20.288;2024-03-22T12:28:18;15.70;;;10.50;;
76714;SDS011;65644;44.990;20.288;2024-03-22T12:30:45;18.05;;;11.02;;
76714;SDS011;65644;44.990;20.288;2024-03-22T12:33:11;18.25;;;10.40;;
76714;SDS011;65644;44.990;20.288;2024-03-22T12:35:39;14.60;;;9.75;;
76714;SDS011;65644;44.990;20.288;2024-03-22T12:38:05;22.48;;;12.45;;
76714;SDS011;65644;44.990;20.288;2024-03-22T12:40:32;15.25;;;10.07;;
76714;SDS011;65644;44.990;20.288;2024-03-22T12:42:58;15.00;;;9.68;;
76714;SDS011;65644;44.990;20.288;2024-03-22T12:45:25;14.07;;;9.13;;
76714;SDS011;65644;44.990;20.288;2024-03-22T12:47:51;16.58;;;10.13;;
76714;SDS011;65644;44.990;20.288;2024-03-22T12:50:17;15.30;;;9.55;;
76714;SDS011;65644;44.990;20.288;2024-03-22T12:52:43;17.98;;;10.55;;
76714;SDS011;65644;44.990;20.288;2024-03-22T12:55:10;15.13;;;10.02;;
76714;SDS011;65644;44.990;20.288;2024-03-22T12:57:36;14.80;;;9.25;;
76714;SDS011;65644;44.990;20.288;2024-03-22T13:00:02;17.90;;;10.60;;
76714;SDS011;65644;44.990;20.288;2024-03-22T13:02:31;19.73;;;11.70;;
76714;SDS011;65644;44.990;20.288;2024-03-22T13:04:58;18.90;;;11.10;;
76714;SDS011;65644;44.990;20.288;2024-03-22T13:07:24;21.52;;;12.85;;
76714;SDS011;65644;44.990;20.288;2024-03-22T13:09:50;27.00;;;14.45;;
76714;SDS011;65644;44.990;20.288;2024-03-22T13:12:16;19.77;;;12.32;;
76714;SDS011;65644;44.990;20.288;2024-03-22T13:14:43;13.77;;;10.15;;
76714;SDS011;65644;44.990;20.288;2024-03-22T13:17:09;21.23;;;10.07;;
76714;SDS011;65644;44.990;20.288;2024-03-22T13:19:35;23.75;;;11.20;;
76714;SDS011;65644;44.990;20.288;2024-03-22T13:22:01;16.95;;;11.30;;
76714;SDS011;65644;44.990;20.288;2024-03-22T13:24:27;19.83;;;11.80;;
76714;SDS011;65644;44.990;20.288;2024-03-22T13:26:54;17.58;;;10.88;;
76714;SDS011;65644;44.990;20.288;2024-03-22T13:29:20;13.77;;;9.30;;
76714;SDS011;65644;44.990;20.288;2024-03-22T13:31:46;13.68;;;9.43;;
76714;SDS011;65644;44.990;20.288;2024-03-22T13:34:12;18.15;;;10.32;;
76714;SDS011;65644;44.990;20.288;2024-03-22T13:36:38;15.45;;;10.20;;
76714;SDS011;65644;44.990;20.288;2024-03-22T13:39:04;16.33;;;10.70;;
76714;SDS011;65644;44.990;20.288;2024-03-22T13:41:30;16.67;;;10.60;;
76714;SDS011;65644;44.990;20.288;2024-03-22T13:43:56;19.88;;;10.98;;
76714;SDS011;65644;44.990;20.288;2024-03-22T13:46:23;18.38;;;10.32;;
76714;SDS011;65644;44.990;20.288;2024-03-22T13:48:51;16.67;;;10.15;;
76714;SDS011;65644;44.990;20.288;2024-03-22T13:51:17;14.65;;;9.77;;
76714;SDS011;65644;44.990;20.288;2024-03-22T13:53:43;16.95;;;9.68;;
76714;SDS011;65644;44.990;20.288;2024-03-22T13:56:09;15.63;;;10.23;;
76714;SDS011;65644;44.990;20.288;2024-03-22T13:58:35;18.30;;;10.45;;
76714;SDS011;65644;44.990;20.288;2024-03-22T14:01:01;14.52;;;10.32;;
76714;SDS011;65644;44.990;20.288;2024-03-22T14:03:28;17.67;;;9.73;;
76714;SDS011;65644;44.990;20.288;2024-03-22T14:05:54;15.02;;;9.98;;